Time;durP1;ratioP1;P1;durP2;ratioP2;P2;SDS_P1;SDS_P2;PMS_P1;PMS_P2;Temp;Humidity;BMP_temperature;BMP_pressure;BME280_temperature;BME280_humidity;BME280_pressure;Samples;Min_cycle;Max_cycle;Signal;HPM_P1;HPM_P2
2024/01/13 00:00:04;;;;;;;6.20;3.20;;;3.20;99.90;;;;;;5032228;28;20039;-75
2024/01/13 00:02:29;;;;;;;7.38;3.17;;;3.20;99.90;;;;;;5014396;28;20045;-75
2024/01/13 00:04:55;;;;;;;6.38;3.00;;;3.20;99.90;;;;;;5031501;28;20497;-75
2024/01/13 00:07:21;;;;;;;7.47;3.58;;;3.20;99.90;;;;;;4997476;28;20409;-75
2024/01/13 00:09:46;;;;;;;10.10;3.80;;;3.20;99.90;;;;;;5014239;28;20046;-76
2024/01/13 00:12:12;;;;;;;7.13;3.95;;;3.10;99.90;;;;;;5013810;28;20497;-75
2024/01/13 00:14:37;;;;;;;9.05;4.35;;;3.20;99.90;;;;;;5013958;28;20493;-75
2024/01/13 00:17:03;;;;;;;11.35;4.30;;;3.10;99.90;;;;;;5028280;28;20036;-75
2024/01/13 00:19:29;;;;;;;15.00;5.03;;;3.20;99.90;;;;;;5034441;28;20095;-76
2024/01/13 00:21:54;;;;;;;13.25;5.00;;;3.20;99.90;;;;;;5014119;28;20417;-77
2024/01/13 00:24:20;;;;;;;13.48;4.85;;;3.10;99.90;;;;;;5013710;28;20041;-75
2024/01/13 00:26:45;;;;;;;8.13;4.00;;;3.10;99.90;;;;;;5012555;28;20480;-75
2024/01/13 00:29:11;;;;;;;9.23;4.72;;;3.10;99.90;;;;;;5013750;28;20568;-75
2024/01/13 00:31:37;;;;;;;7.60;4.20;;;3.10;99.90;;;;;;5013820;28;20045;-75
2024/01/13 00:34:03;;;;;;;8.75;4.65;;;3.10;99.90;;;;;;5013693;28;20462;-76
2024/01/13 00:36:28;;;;;;;9.05;4.60;;;3.10;99.90;;;;;;5013098;28;20060;-75
2024/01/13 00:38:54;;;;;;;7.45;4.28;;;3.10;99.90;;;;;;5044675;28;20075;-75
2024/01/13 00:41:19;;;;;;;15.70;4.53;;;3.10;99.90;;;;;;5013726;28;20052;-75
2024/01/13 00:43:45;;;;;;;13.18;4.38;;;3.10;99.90;;;;;;5010792;28;20116;-76
2024/01/13 00:46:11;;;;;;;11.80;4.50;;;3.10;99.90;;;;;;5008525;28;20038;-75
2024/01/13 00:48:36;;;;;;;10.38;4.32;;;3.10;99.90;;;;;;5033569;28;20037;-76
2024/01/13 00:51:02;;;;;;;17.15;4.50;;;3.20;99.90;;;;;;5013597;28;20120;-75
2024/01/13 00:53:28;;;;;;;11.75;4.85;;;3.10;99.90;;;;;;5012988;28;20121;-75
2024/01/13 00:55:54;;;;;;;11.15;4.38;;;3.10;99.90;;;;;;5030275;28;20160;-75
2024/01/13 00:58:19;;;;;;;8.13;3.83;;;3.20;99.90;;;;;;5013327;28;20116;-75
2024/01/13 01:00:45;;;;;;;7.97;3.78;;;3.10;99.90;;;;;;5013493;28;20454;-75
2024/01/13 01:03:11;;;;;;;7.03;4.03;;;3.10;99.90;;;;;;5013424;28;20394;-77
2024/01/13 01:05:36;;;;;;;8.43;3.78;;;3.10;99.90;;;;;;5012283;28;20041;-76
2024/01/13 01:08:02;;;;;;;7.60;3.92;;;3.10;99.90;;;;;;5030948;28;20030;-75
2024/01/13 01:10:27;;;;;;;8.60;3.85;;;3.10;99.90;;;;;;5013608;28;20049;-75
2024/01/13 01:12:53;;;;;;;7.80;3.85;;;3.10;99.90;;;;;;5013204;28;20068;-75
2024/01/13 01:15:18;;;;;;;7.55;3.67;;;3.10;99.90;;;;;;5011876;28;20064;-75
2024/01/13 01:17:44;;;;;;;10.10;3.60;;;3.10;99.90;;;;;;5012980;28;20065;-76
2024/01/13 01:20:11;;;;;;;7.97;4.55;;;3.20;99.90;;;;;;5014997;28;20037;-75
2024/01/13 01:22:36;;;;;;;8.07;3.97;;;3.20;99.90;;;;;;5013240;28;20045;-77
2024/01/13 01:25:02;;;;;;;9.13;4.35;;;3.10;99.90;;;;;;5008163;28;20048;-75
2024/01/13 01:27:28;;;;;;;8.88;4.38;;;3.10;99.90;;;;;;5034489;28;20064;-75
2024/01/13 01:29:53;;;;;;;13.88;5.05;;;3.10;99.90;;;;;;5016807;28;20033;-75
2024/01/13 01:32:19;;;;;;;11.25;4.78;;;3.10;99.90;;;;;;5019790;28;20476;-75
2024/01/13 01:34:44;;;;;;;12.07;5.10;;;3.10;99.90;;;;;;5010626;28;20119;-77
2024/01/13 01:37:10;;;;;;;10.75;4.93;;;3.10;99.90;;;;;;5016586;28;20084;-75
2024/01/13 01:39:35;;;;;;;9.50;4.90;;;3.10;99.90;;;;;;5034472;28;20061;-75
2024/01/13 01:42:01;;;;;;;12.27;5.15;;;3.10;99.90;;;;;;5017256;28;20072;-75
2024/01/13 01:44:26;;;;;;;9.57;5.45;;;3.10;99.90;;;;;;5015661;28;20088;-75
2024/01/13 01:46:53;;;;;;;9.07;5.03;;;3.10;99.90;;;;;;5016132;28;20037;-75
2024/01/13 01:49:19;;;;;;;9.93;5.07;;;3.10;99.90;;;;;;5018511;28;20049;-75
2024/01/13 01:51:45;;;;;;;9.65;5.32;;;3.10;99.90;;;;;;5016320;28;20049;-75
2024/01/13 01:54:11;;;;;;;13.45;6.13;;;3.10;99.90;;;;;;5016690;28;20033;-75
2024/01/13 01:56:38;;;;;;;10.77;5.63;;;3.10;99.90;;;;;;5016071;28;20106;-75
2024/01/13 01:59:04;;;;;;;13.30;5.20;;;3.10;99.90;;;;;;4999031;28;20444;-75
2024/01/13 02:01:31;;;;;;;13.50;5.25;;;3.10;99.90;;;;;;5039703;28;20033;-75
2024/01/13 02:03:57;;;;;;;10.98;5.30;;;3.10;99.90;;;;;;5035465;28;20460;-75
2024/01/13 02:06:24;;;;;;;9.70;5.65;;;3.10;99.90;;;;;;5015985;28;20053;-75
2024/01/13 02:08:50;;;;;;;12.65;5.80;;;3.10;99.90;;;;;;5008933;28;20206;-75
2024/01/13 02:11:16;;;;;;;11.60;5.53;;;3.20;99.90;;;;;;5016685;28;20198;-75
2024/01/13 02:13:43;;;;;;;8.95;4.75;;;3.10;99.90;;;;;;5016381;28;20040;-76
2024/01/13 02:16:10;;;;;;;9.27;4.75;;;3.10;99.90;;;;;;5015764;28;20080;-76
2024/01/13 02:18:35;;;;;;;10.13;4.75;;;3.10;99.90;;;;;;5032038;28;20049;-76
2024/01/13 02:21:01;;;;;;;9.02;4.72;;;3.10;99.90;;;;;;5015602;28;20465;-75
2024/01/13 02:23:27;;;;;;;8.52;4.35;;;3.20;99.90;;;;;;5016183;28;20113;-75
2024/01/13 02:25:52;;;;;;;10.77;5.38;;;3.20;99.90;;;;;;5015780;28;20053;-75
2024/01/13 02:28:18;;;;;;;10.73;5.00;;;3.10;99.90;;;;;;4994538;28;20045;-75
2024/01/13 02:30:44;;;;;;;9.95;4.82;;;3.10;99.90;;;;;;5031414;28;20681;-75
2024/01/13 02:33:09;;;;;;;8.75;4.90;;;3.10;99.90;;;;;;5016196;28;20039;-75
2024/01/13 02:35:35;;;;;;;9.30;5.38;;;3.10;99.90;;;;;;5029521;28;20053;-76
2024/01/13 02:38:01;;;;;;;9.50;5.40;;;3.10;99.90;;;;;;5031372;28;20045;-75
2024/01/13 02:40:26;;;;;;;12.00;5.40;;;3.20;99.90;;;;;;5011720;28;20044;-75
2024/01/13 02:42:52;;;;;;;9.98;5.63;;;3.10;99.90;;;;;;5015102;28;20049;-75
2024/01/13 02:45:18;;;;;;;15.25;6.28;;;3.10;99.90;;;;;;5015733;28;20141;-75
2024/01/13 02:47:45;;;;;;;12.13;5.53;;;3.10;99.90;;;;;;5014096;28;20038;-75
2024/01/13 02:50:13;;;;;;;13.48;5.75;;;3.10;99.90;;;;;;5015086;28;20041;-76
2024/01/13 02:52:40;;;;;;;12.43;5.63;;;3.20;99.90;;;;;;5015620;28;20041;-76
2024/01/13 02:55:06;;;;;;;11.43;5.57;;;3.10;99.90;;;;;;5032808;28;20048;-75
2024/01/13 02:57:32;;;;;;;11.70;5.50;;;3.10;99.90;;;;;;5015862;28;20049;-76
2024/01/13 02:59:57;;;;;;;11.27;5.90;;;3.10;99.90;;;;;;5002867;28;20041;-75
2024/01/13 03:02:23;;;;;;;9.82;4.82;;;3.10;99.90;;;;;;5019287;28;20119;-76
2024/01/13 03:04:48;;;;;;;12.40;5.68;;;3.10;99.90;;;;;;5014022;28;20045;-75
2024/01/13 03:07:14;;;;;;;10.98;5.18;;;3.10;99.90;;;;;;5032758;28;20551;-75
2024/01/13 03:09:39;;;;;;;12.25;5.53;;;3.10;99.90;;;;;;4998820;28;20037;-75
2024/01/13 03:12:06;;;;;;;11.98;5.32;;;3.20;99.90;;;;;;5014534;28;20038;-76
2024/01/13 03:14:31;;;;;;;10.65;5.22;;;3.10;99.90;;;;;;5007165;28;20046;-77
2024/01/13 03:16:57;;;;;;;10.63;5.38;;;3.10;99.90;;;;;;5014322;28;20099;-75
2024/01/13 03:19:22;;;;;;;10.65;5.32;;;3.10;99.90;;;;;;4994059;28;20040;-75
2024/01/13 03:21:48;;;;;;;13.10;5.70;;;3.10;99.90;;;;;;5015373;28;20080;-75
2024/01/13 03:24:13;;;;;;;11.57;5.70;;;3.10;99.90;;;;;;5014388;28;20071;-77
2024/01/13 03:26:39;;;;;;;11.82;5.50;;;3.10;99.90;;;;;;5014613;28;20049;-75
2024/01/13 03:29:07;;;;;;;10.63;5.60;;;3.00;99.90;;;;;;5014788;28;20438;-75
2024/01/13 03:31:33;;;;;;;11.95;5.65;;;3.00;99.90;;;;;;5014904;28;20048;-75
2024/01/13 03:33:58;;;;;;;15.43;5.85;;;3.00;99.90;;;;;;5028900;28;20389;-75
2024/01/13 03:36:24;;;;;;;12.85;5.70;;;3.10;99.90;;;;;;5031142;28;20041;-76
2024/01/13 03:38:49;;;;;;;12.18;5.70;;;3.10;99.90;;;;;;5032426;28;20042;-75
2024/01/13 03:41:18;;;;;;;12.32;5.15;;;3.10;99.90;;;;;;5014702;28;20036;-74
2024/01/13 03:43:47;;;;;;;10.40;5.10;;;3.00;99.90;;;;;;5025120;28;20069;-76
2024/01/13 03:46:13;;;;;;;10.13;4.95;;;3.00;99.90;;;;;;5028815;28;20051;-75
2024/01/13 03:48:38;;;;;;;9.98;5.70;;;3.10;99.90;;;;;;5014412;28;20120;-75
2024/01/13 03:51:04;;;;;;;11.50;5.30;;;3.10;99.90;;;;;;5014710;28;20033;-75
2024/01/13 03:53:31;;;;;;;12.13;5.32;;;3.10;99.90;;;;;;5013797;28;20542;-77
2024/01/13 03:55:57;;;;;;;11.48;5.60;;;3.10;99.90;;;;;;5014085;28;20536;-76
2024/01/13 03:58:22;;;;;;;11.90;5.80;;;3.10;99.90;;;;;;5016471;28;20041;-75
2024/01/13 04:00:48;;;;;;;13.40;5.40;;;3.10;99.90;;;;;;4996417;28;20041;-76
2024/01/13 04:03:13;;;;;;;15.18;5.78;;;3.10;99.90;;;;;;5009921;28;20042;-75
2024/01/13 04:05:39;;;;;;;10.82;5.25;;;3.10;99.90;;;;;;5014280;28;20049;-76
2024/01/13 04:08:04;;;;;;;12.05;4.90;;;3.10;99.90;;;;;;5014089;28;20061;-75
2024/01/13 04:10:30;;;;;;;11.48;4.88;;;3.10;99.90;;;;;;5014446;28;20041;-75
2024/01/13 04:12:56;;;;;;;11.25;4.70;;;3.10;99.90;;;;;;5012067;28;20037;-75
2024/01/13 04:15:22;;;;;;;9.75;4.95;;;3.10;99.90;;;;;;5031617;28;20049;-75
2024/01/13 04:17:48;;;;;;;11.00;4.40;;;3.10;99.90;;;;;;5020793;28;20068;-75
2024/01/13 04:20:13;;;;;;;10.65;4.38;;;3.10;99.90;;;;;;5014364;28;20045;-75
2024/01/13 04:22:39;;;;;;;8.40;3.97;;;3.10;99.90;;;;;;5012244;28;20504;-75
2024/01/13 04:25:05;;;;;;;10.13;4.57;;;3.10;99.90;;;;;;5031353;28;20048;-75
2024/01/13 04:27:30;;;;;;;9.30;4.05;;;3.10;99.90;;;;;;5013644;28;20077;-75
2024/01/13 04:29:56;;;;;;;8.15;3.60;;;3.10;99.90;;;;;;5027029;28;20084;-75
2024/01/13 04:32:21;;;;;;;7.90;3.92;;;3.10;99.90;;;;;;5031639;28;20042;-76
2024/01/13 04:34:48;;;;;;;7.40;3.83;;;3.10;99.90;;;;;;5012748;28;20091;-75
2024/01/13 04:37:13;;;;;;;6.72;3.45;;;3.10;99.90;;;;;;5013276;28;20045;-75
2024/01/13 04:39:39;;;;;;;9.15;3.70;;;3.10;99.90;;;;;;5010261;28;20129;-75
2024/01/13 04:42:04;;;;;;;10.32;3.58;;;3.10;99.90;;;;;;5022648;28;20148;-75
2024/01/13 04:44:30;;;;;;;6.75;3.40;;;3.10;99.90;;;;;;5013231;28;20464;-76
2024/01/13 04:46:56;;;;;;;7.18;3.33;;;3.10;99.90;;;;;;5018330;28;20124;-75
2024/01/13 04:49:21;;;;;;;9.60;3.92;;;3.10;99.90;;;;;;5013754;28;20132;-75
2024/01/13 04:51:47;;;;;;;8.50;3.28;;;3.10;99.90;;;;;;5013329;28;20409;-75
2024/01/13 04:54:12;;;;;;;7.43;3.50;;;3.10;99.90;;;;;;5017848;22;20046;-74
2024/01/13 04:56:38;;;;;;;8.80;3.63;;;3.20;99.90;;;;;;4964370;28;20037;-74
2024/01/13 04:59:03;;;;;;;9.68;3.45;;;3.20;99.90;;;;;;4973405;28;20040;-74
2024/01/13 05:01:29;;;;;;;11.27;3.85;;;3.10;99.90;;;;;;4992124;28;20042;-74
2024/01/13 05:03:54;;;;;;;9.15;3.85;;;3.10;99.90;;;;;;4972413;28;20042;-74
2024/01/13 05:06:20;;;;;;;6.75;3.38;;;3.10;99.90;;;;;;4974375;28;20038;-74
2024/01/13 05:08:46;;;;;;;7.45;3.30;;;3.10;99.90;;;;;;4983334;28;20038;-73
2024/01/13 05:11:11;;;;;;;6.20;3.15;;;3.10;99.90;;;;;;4980274;28;20039;-74
2024/01/13 05:13:37;;;;;;;7.28;3.15;;;3.10;99.90;;;;;;4962649;28;20043;-74
2024/01/13 05:16:03;;;;;;;6.97;3.50;;;3.00;99.90;;;;;;4955912;28;20117;-74
2024/01/13 05:18:28;;;;;;;8.10;3.75;;;3.00;99.90;;;;;;4968964;28;20640;-74
2024/01/13 05:20:54;;;;;;;8.93;3.40;;;3.00;99.90;;;;;;4972290;28;20038;-74
2024/01/13 05:23:20;;;;;;;6.88;3.30;;;3.00;99.90;;;;;;4957921;28;20058;-74
2024/01/13 05:25:45;;;;;;;6.85;3.25;;;3.00;99.90;;;;;;4957619;28;20047;-74
2024/01/13 05:28:11;;;;;;;7.03;3.10;;;3.00;99.90;;;;;;4973080;28;20039;-74
2024/01/13 05:30:36;;;;;;;6.78;3.13;;;3.00;99.90;;;;;;4983285;28;20645;-74
2024/01/13 05:33:02;;;;;;;6.18;2.95;;;3.10;99.90;;;;;;4956570;28;20487;-74
2024/01/13 05:35:28;;;;;;;8.15;3.20;;;3.10;99.90;;;;;;4981341;28;20039;-74
2024/01/13 05:37:53;;;;;;;6.32;2.80;;;3.10;99.90;;;;;;4984447;28;20391;-74
2024/01/13 05:40:22;;;;;;;7.22;3.10;;;3.10;99.90;;;;;;4962995;28;20064;-74
2024/01/13 05:42:47;;;;;;;5.72;3.05;;;3.10;99.90;;;;;;4964646;28;20141;-74
2024/01/13 05:45:13;;;;;;;7.78;3.13;;;3.20;99.90;;;;;;4973470;28;20134;-74
2024/01/13 05:47:39;;;;;;;8.75;2.88;;;3.10;99.90;;;;;;4979054;28;20042;-74
2024/01/13 05:50:05;;;;;;;7.35;3.03;;;3.20;99.90;;;;;;4973092;28;20089;-74
2024/01/13 05:52:30;;;;;;;9.38;3.60;;;3.20;99.90;;;;;;4957865;28;20117;-74
2024/01/13 05:54:56;;;;;;;8.38;3.80;;;3.20;99.90;;;;;;4954156;28;20081;-74
2024/01/13 05:57:22;;;;;;;7.35;3.67;;;3.20;99.90;;;;;;4953906;28;20050;-74
2024/01/13 05:59:48;;;;;;;7.80;3.90;;;3.10;99.90;;;;;;4954489;28;20051;-74
2024/01/13 06:02:14;;;;;;;9.68;4.25;;;3.10;99.90;;;;;;4971606;28;20035;-74
2024/01/13 06:04:40;;;;;;;7.30;3.83;;;3.10;99.90;;;;;;4974340;28;20256;-74
2024/01/13 06:07:06;;;;;;;8.10;4.45;;;4.30;99.90;;;;;;4946221;28;20035;-75
2024/01/13 06:09:32;;;;;;;7.55;4.07;;;3.10;99.90;;;;;;4974870;28;20039;-75
2024/01/13 06:11:58;;;;;;;8.23;4.38;;;3.10;99.90;;;;;;4964537;28;20042;-75
2024/01/13 06:14:24;;;;;;;7.68;3.95;;;3.20;99.90;;;;;;4945863;28;20086;-75
2024/01/13 06:16:50;;;;;;;7.70;3.92;;;3.10;99.90;;;;;;4976563;28;20053;-75
2024/01/13 06:19:15;;;;;;;9.48;4.18;;;3.10;99.90;;;;;;4957795;28;20042;-75
2024/01/13 06:21:43;;;;;;;9.60;4.10;;;3.10;99.90;;;;;;4958927;28;20043;-75
2024/01/13 06:24:11;;;;;;;9.05;4.18;;;3.10;99.90;;;;;;4975168;28;20133;-75
2024/01/13 06:26:40;;;;;;;7.90;4.25;;;3.10;99.90;;;;;;4940783;28;20039;-75
2024/01/13 06:29:09;;;;;;;8.20;3.80;;;3.10;99.90;;;;;;4975376;28;20039;-75
2024/01/13 06:31:35;;;;;;;7.60;4.00;;;3.10;99.90;;;;;;4947091;28;20030;-75
2024/01/13 06:34:01;;;;;;;6.97;3.33;;;3.10;99.90;;;;;;4978000;28;20573;-75
2024/01/13 06:36:27;;;;;;;8.23;3.75;;;3.10;99.90;;;;;;4978128;28;20080;-75
2024/01/13 06:38:53;;;;;;;6.18;3.30;;;3.10;99.90;;;;;;4957565;28;20054;-75
2024/01/13 06:41:19;;;;;;;10.63;3.22;;;3.10;99.90;;;;;;4974511;28;20416;-75
2024/01/13 06:43:44;;;;;;;7.68;3.55;;;3.10;99.90;;;;;;4974769;28;20066;-75
2024/01/13 06:46:11;;;;;;;8.10;3.22;;;3.20;99.90;;;;;;4956768;28;20074;-75
2024/01/13 06:48:37;;;;;;;6.65;3.47;;;3.20;99.90;;;;;;4960766;28;20060;-76
2024/01/13 06:51:03;;;;;;;6.07;3.20;;;3.20;99.90;;;;;;4974439;28;20479;-76
2024/01/13 06:53:28;;;;;;;7.80;3.97;;;3.20;99.90;;;;;;4974840;28;20042;-76
2024/01/13 06:55:54;;;;;;;7.18;3.60;;;3.20;99.90;;;;;;4955802;28;20043;-76
2024/01/13 06:58:20;;;;;;;7.10;3.50;;;3.20;99.90;;;;;;4946256;28;20049;-76
2024/01/13 07:00:45;;;;;;;7.70;3.67;;;3.20;99.90;;;;;;4958085;28;20046;-76
2024/01/13 07:03:11;;;;;;;9.85;4.18;;;3.20;99.90;;;;;;4957152;28;20082;-76
2024/01/13 07:05:36;;;;;;;11.07;3.97;;;3.20;99.90;;;;;;4956346;28;20039;-76
2024/01/13 07:08:04;;;;;;;7.75;4.10;;;3.20;99.90;;;;;;4957028;28;20043;-76
2024/01/13 07:10:29;;;;;;;8.65;4.22;;;3.20;99.90;;;;;;4964894;28;20043;-76
2024/01/13 07:12:56;;;;;;;7.50;3.75;;;3.20;99.90;;;;;;4954278;28;20411;-76
2024/01/13 07:15:22;;;;;;;8.02;4.30;;;3.20;99.90;;;;;;4943425;28;20102;-76
2024/01/13 07:17:47;;;;;;;10.43;4.20;;;3.20;99.90;;;;;;4946794;28;20519;-76
2024/01/13 07:20:13;;;;;;;9.82;4.20;;;3.20;99.90;;;;;;4973279;28;20030;-76
2024/01/13 07:22:39;;;;;;;8.85;3.72;;;3.20;99.90;;;;;;4969830;28;20121;-76
2024/01/13 07:25:06;;;;;;;7.40;3.63;;;3.20;99.90;;;;;;4966793;28;20410;-76
2024/01/13 07:27:32;;;;;;;8.32;3.70;;;3.20;99.90;;;;;;4972689;28;20399;-76
2024/01/13 07:29:59;;;;;;;7.40;3.90;;;3.20;99.90;;;;;;4972967;28;20035;-75
2024/01/13 07:32:24;;;;;;;9.40;4.38;;;3.20;99.90;;;;;;4974299;28;20047;-76
2024/01/13 07:34:50;;;;;;;11.45;4.68;;;3.20;99.90;;;;;;4964662;28;20053;-76
2024/01/13 07:37:16;;;;;;;14.93;4.68;;;3.20;99.90;;;;;;4955137;28;20106;-76
2024/01/13 07:39:43;;;;;;;10.55;4.75;;;3.20;99.90;;;;;;4973532;28;20043;-76
2024/01/13 07:42:09;;;;;;;11.98;5.35;;;3.30;99.90;;;;;;4955409;28;20480;-76
2024/01/13 07:44:34;;;;;;;11.40;5.45;;;3.30;99.90;;;;;;4955980;28;20112;-76
2024/01/13 07:47:03;;;;;;;11.05;5.38;;;3.30;99.90;;;;;;4972891;28;20099;-75
2024/01/13 07:49:29;;;;;;;9.95;4.50;;;3.30;99.90;;;;;;4973337;28;20042;-75
2024/01/13 07:51:56;;;;;;;9.07;4.00;;;3.30;99.90;;;;;;4958185;28;20038;-75
2024/01/13 07:54:22;;;;;;;7.03;3.63;;;3.30;99.90;;;;;;4973410;28;20061;-75
2024/01/13 07:56:49;;;;;;;7.03;3.50;;;3.30;99.90;;;;;;4972827;28;20041;-75
2024/01/13 07:59:16;;;;;;;7.05;3.03;;;3.30;99.90;;;;;;4973257;28;20038;-75
2024/01/13 08:01:42;;;;;;;6.32;2.92;;;3.30;99.90;;;;;;4952767;28;20421;-75
2024/01/13 08:04:07;;;;;;;6.05;2.90;;;3.40;99.90;;;;;;4955292;28;20134;-75
2024/01/13 08:06:33;;;;;;;8.27;3.10;;;3.40;99.90;;;;;;4955404;28;20207;-75
2024/01/13 08:08:59;;;;;;;7.88;3.25;;;3.40;99.90;;;;;;4972865;28;20043;-75
2024/01/13 08:11:25;;;;;;;6.57;3.28;;;3.40;99.90;;;;;;4959807;28;20389;-75
2024/01/13 08:13:50;;;;;;;6.43;3.25;;;3.50;99.90;;;;;;4966975;28;20042;-75
2024/01/13 08:16:16;;;;;;;7.78;3.75;;;3.40;99.90;;;;;;4960116;28;20074;-75
2024/01/13 08:18:42;;;;;;;9.75;3.88;;;3.40;99.90;;;;;;4957012;28;20130;-75
2024/01/13 08:21:07;;;;;;;8.70;4.03;;;3.50;99.90;;;;;;4973931;28;20039;-74
2024/01/13 08:23:33;;;;;;;10.43;4.93;;;3.50;99.90;;;;;;4976363;28;20046;-75
2024/01/13 08:26:00;;;;;;;11.25;4.97;;;3.50;99.90;;;;;;4932356;28;20098;-75
2024/01/13 08:28:25;;;;;;;11.88;5.70;;;3.50;99.90;;;;;;4971898;28;20114;-75
2024/01/13 08:30:51;;;;;;;13.18;5.97;;;3.50;99.90;;;;;;4949744;28;20214;-75
2024/01/13 08:33:17;;;;;;;13.13;5.78;;;3.50;99.90;;;;;;4979473;28;20065;-75
2024/01/13 08:35:43;;;;;;;14.68;6.15;;;3.60;99.90;;;;;;4972681;28;20035;-75
2024/01/13 08:38:08;;;;;;;18.00;6.22;;;3.60;99.90;;;;;;4966665;28;20078;-75
2024/01/13 08:40:34;;;;;;;20.67;7.25;;;3.60;99.90;;;;;;4966588;28;20105;-75
2024/01/13 08:43:02;;;;;;;22.05;7.70;;;3.60;99.90;;;;;;4986529;28;20070;-74
2024/01/13 08:45:29;;;;;;;20.33;8.32;;;3.50;99.90;;;;;;4965333;28;20054;-75
2024/01/13 08:47:59;;;;;;;23.65;9.15;;;3.60;99.90;;;;;;4954993;28;20042;-75
2024/01/13 08:50:24;;;;;;;25.42;9.10;;;3.60;99.90;;;;;;4960876;28;20050;-75
2024/01/13 08:52:54;;;;;;;27.17;10.00;;;3.60;99.90;;;;;;4972461;28;20484;-75
2024/01/13 08:55:20;;;;;;;23.05;9.57;;;3.60;99.90;;;;;;4952506;28;20049;-75
2024/01/13 08:57:46;;;;;;;28.38;10.93;;;3.60;99.90;;;;;;4971816;28;20039;-76
2024/01/13 09:00:12;;;;;;;30.98;11.43;;;3.60;99.90;;;;;;4947567;28;20126;-75
2024/01/13 09:02:39;;;;;;;35.03;11.80;;;3.60;99.90;;;;;;4956004;28;20132;-75
2024/01/13 09:05:11;;;;;;;30.08;12.43;;;3.60;99.90;;;;;;4952615;28;20042;-77
2024/01/13 09:07:37;;;;;;;33.13;12.98;;;3.60;99.90;;;;;;4975624;28;20035;-76
2024/01/13 09:10:04;;;;;;;35.55;14.10;;;3.60;99.90;;;;;;4950609;28;20519;-76
2024/01/13 09:12:30;;;;;;;33.65;14.05;;;3.60;99.90;;;;;;4945462;28;20039;-76
2024/01/13 09:14:56;;;;;;;38.33;14.95;;;3.60;99.90;;;;;;4961234;28;20046;-76
2024/01/13 09:17:21;;;;;;;44.67;16.73;;;3.60;99.90;;;;;;4953771;28;20548;-75
2024/01/13 09:19:47;;;;;;;41.30;17.30;;;3.60;99.90;;;;;;4970125;28;20039;-75
2024/01/13 09:22:13;;;;;;;42.78;17.15;;;3.60;99.90;;;;;;4978567;28;20044;-75
2024/01/13 09:24:41;;;;;;;40.42;17.13;;;3.60;99.90;;;;;;4951410;28;20046;-75
2024/01/13 09:27:06;;;;;;;44.17;17.77;;;3.60;99.90;;;;;;4964445;28;20491;-75
2024/01/13 09:29:32;;;;;;;47.50;18.58;;;3.60;99.90;;;;;;4947460;28;20043;-76
2024/01/13 09:31:57;;;;;;;45.90;19.10;;;3.50;99.90;;;;;;4971091;28;20090;-75
2024/01/13 09:34:24;;;;;;;49.85;19.67;;;3.60;99.90;;;;;;4973415;28;20035;-76
2024/01/13 09:36:50;;;;;;;54.92;20.50;;;4.20;99.90;;;;;;4942082;28;20042;-76
2024/01/13 09:39:16;;;;;;;44.55;19.05;;;3.50;99.90;;;;;;4947727;28;20078;-76
2024/01/13 09:41:46;;;;;;;51.95;21.25;;;3.60;99.90;;;;;;4951519;28;20144;-76
2024/01/13 09:44:23;;;;;;;50.15;19.45;;;3.50;99.90;;;;;;4967459;28;20056;-76
2024/01/13 09:46:51;;;;;;;46.05;21.52;;;3.50;99.90;;;;;;4978662;28;20436;-76
2024/01/13 09:49:18;;;;;;;55.95;22.67;;;3.60;99.90;;;;;;4975695;28;20035;-76
2024/01/13 09:51:45;;;;;;;49.03;22.17;;;3.60;99.90;;;;;;4964609;28;20117;-75
2024/01/13 09:54:29;;;;;;;56.88;22.45;;;3.60;99.90;;;;;;4976625;28;20478;-76
2024/01/13 09:56:56;;;;;;;60.35;23.27;;;3.60;99.90;;;;;;4964132;28;20538;-76
2024/01/13 09:59:25;;;;;;;54.63;23.55;;;3.60;99.90;;;;;;4978185;28;20105;-75
2024/01/13 10:01:52;;;;;;;55.35;24.85;;;3.60;99.90;;;;;;4957746;28;20043;-76
2024/01/13 10:04:17;;;;;;;57.40;24.42;;;3.60;99.90;;;;;;4978516;28;20051;-76
2024/01/13 10:06:45;;;;;;;52.97;23.08;;;3.60;99.90;;;;;;4981689;28;20035;-76
2024/01/13 10:09:11;;;;;;;61.45;23.95;;;3.70;99.90;;;;;;4972993;28;20538;-77
2024/01/13 10:11:37;;;;;;;49.30;23.27;;;3.70;99.90;;;;;;4944275;28;20053;-76
2024/01/13 10:14:08;;;;;;;43.72;20.95;;;3.70;99.90;;;;;;4953397;28;20035;-75
2024/01/13 10:16:35;;;;;;;45.78;21.77;;;3.70;99.90;;;;;;4969295;28;20047;-75
2024/01/13 10:19:08;;;;;;;49.45;21.90;;;3.70;99.90;;;;;;4969213;28;20407;-75
2024/01/13 10:21:35;;;;;;;50.03;22.05;;;3.70;99.90;;;;;;4955223;28;20059;-75
2024/01/13 10:24:02;;;;;;;49.60;23.13;;;3.70;99.90;;;;;;4975099;28;20853;-75
2024/01/13 10:26:29;;;;;;;49.28;22.85;;;3.70;99.90;;;;;;4951823;28;20051;-76
2024/01/13 10:28:56;;;;;;;56.33;24.38;;;3.70;99.90;;;;;;4957610;28;20356;-76
2024/01/13 10:31:23;;;;;;;51.70;23.85;;;3.70;99.90;;;;;;4956739;28;20468;-74
2024/01/13 10:33:49;;;;;;;50.13;23.40;;;3.70;99.90;;;;;;4985494;28;20046;-74
2024/01/13 10:36:16;;;;;;;54.10;24.73;;;3.70;99.90;;;;;;4950527;28;20092;-75
2024/01/13 10:38:43;;;;;;;53.88;25.80;;;3.80;99.90;;;;;;4971693;28;20089;-75
2024/01/13 10:41:09;;;;;;;53.72;26.65;;;3.80;99.90;;;;;;4976482;28;20376;-75
2024/01/13 10:43:43;;;;;;;63.33;27.73;;;3.80;99.90;;;;;;4947660;28;20042;-74
2024/01/13 10:46:13;;;;;;;61.28;28.85;;;3.80;99.90;;;;;;4973231;28;20108;-75
2024/01/13 10:48:47;;;;;;;58.60;29.83;;;3.80;99.90;;;;;;4970517;28;20408;-75
2024/01/13 10:51:33;;;;;;;67.63;28.50;;;3.80;99.90;;;;;;4967791;28;20180;-75
2024/01/13 10:54:00;;;;;;;61.92;28.75;;;3.90;99.90;;;;;;4958156;28;20077;-75
2024/01/13 10:56:27;;;;;;;66.18;29.55;;;3.90;99.90;;;;;;4960594;28;20045;-75
2024/01/13 10:58:54;;;;;;;67.30;28.80;;;3.80;99.90;;;;;;4981234;28;20512;-75
2024/01/13 11:01:20;;;;;;;67.78;30.77;;;3.90;99.90;;;;;;4973650;28;20053;-73
2024/01/13 11:03:47;;;;;;;66.68;31.23;;;3.90;99.90;;;;;;4961160;28;20042;-73
2024/01/13 11:06:13;;;;;;;73.60;33.10;;;3.90;99.90;;;;;;4956613;28;20050;-73
2024/01/13 11:08:39;;;;;;;68.15;33.72;;;4.00;99.90;;;;;;4958467;28;20030;-72
2024/01/13 11:11:08;;;;;;;78.72;33.90;;;3.90;99.90;;;;;;4977085;28;20661;-72
2024/01/13 11:13:40;;;;;;;69.18;34.72;;;3.90;99.90;;;;;;4963926;28;20407;-72
2024/01/13 11:16:19;;;;;;;69.93;33.75;;;4.00;99.90;;;;;;4962457;28;20045;-72
2024/01/13 11:18:52;;;;;;;74.70;33.85;;;4.00;99.90;;;;;;4976023;28;20113;-72
2024/01/13 11:21:19;;;;;;;;;;;4.00;99.90;;;;;;4943908;28;20096;-72
2024/01/13 11:23:45;;;;;;;68.68;32.33;;;4.00;99.90;;;;;;4967180;28;19918;-72
2024/01/13 11:26:14;;;;;;;71.93;33.60;;;4.00;99.90;;;;;;5018204;23;20397;-76
2024/01/13 11:28:58;;;;;;;71.18;32.15;;;4.00;99.90;;;;;;5026459;28;20119;-78
2024/01/13 11:31:36;;;;;;;67.88;31.92;;;4.10;99.90;;;;;;5008454;28;20489;-77
2024/01/13 11:34:03;;;;;;;61.53;30.40;;;4.10;99.90;;;;;;4988516;28;20041;-76
2024/01/13 11:36:31;;;;;;;75.05;33.05;;;4.10;99.90;;;;;;5012709;28;20045;-76
2024/01/13 11:38:58;;;;;;;66.38;31.65;;;4.10;99.90;;;;;;4996523;28;20074;-76
2024/01/13 11:41:46;;;;;;;67.88;31.67;;;4.10;99.90;;;;;;5007492;28;20190;-78
2024/01/13 11:44:19;;;;;;;70.18;32.33;;;4.10;99.90;;;;;;4991348;28;20041;-77
2024/01/13 11:46:57;;;;;;;64.05;30.52;;;4.10;99.90;;;;;;4991650;28;20042;-76
2024/01/13 11:49:33;;;;;;;68.97;30.88;;;4.10;99.90;;;;;;5010156;28;20042;-78
2024/01/13 11:52:01;;;;;;;66.45;30.75;;;4.10;99.90;;;;;;5007486;28;20393;-76
2024/01/13 11:54:28;;;;;;;65.57;29.13;;;4.10;99.90;;;;;;4991940;28;20053;-76
2024/01/13 11:56:56;;;;;;;69.88;31.20;;;4.10;99.90;;;;;;4992461;28;20060;-76
2024/01/13 11:59:21;;;;;;;63.75;27.70;;;4.10;99.90;;;;;;5018596;28;20498;-76
2024/01/13 12:01:48;;;;;;;60.90;29.67;;;4.10;99.90;;;;;;4990993;28;20049;-76
2024/01/13 12:04:16;;;;;;;57.72;26.30;;;4.10;99.90;;;;;;5003919;28;20038;-76
2024/01/13 12:06:43;;;;;;;59.05;27.00;;;4.10;99.90;;;;;;5001466;28;20045;-73
2024/01/13 12:09:12;;;;;;;52.90;26.13;;;4.20;99.90;;;;;;4986328;28;20494;-75
2024/01/13 12:11:41;;;;;;;59.50;26.90;;;4.20;99.90;;;;;;5012962;28;20041;-74
2024/01/13 12:14:07;;;;;;;67.53;27.80;;;4.30;99.90;;;;;;4994503;28;20425;-75
2024/01/13 12:16:34;;;;;;;63.60;29.27;;;4.30;99.90;;;;;;5017783;28;20049;-76
2024/01/13 12:18:59;;;;;;;64.22;29.60;;;4.40;99.90;;;;;;5009720;28;20053;-75
2024/01/13 12:21:25;;;;;;;58.40;28.52;;;4.40;99.90;;;;;;4987739;28;20042;-74
2024/01/13 12:23:51;;;;;;;61.92;29.40;;;4.50;99.90;;;;;;4995542;28;20537;-74
2024/01/13 12:26:16;;;;;;;56.50;26.80;;;4.50;99.90;;;;;;4989965;28;20033;-74
2024/01/13 12:28:43;;;;;;;52.92;26.10;;;4.50;99.90;;;;;;4991921;28;20049;-74
2024/01/13 12:31:09;;;;;;;52.28;26.02;;;4.50;99.90;;;;;;4991286;28;20057;-73
2024/01/13 12:33:35;;;;;;;55.63;23.70;;;4.50;99.90;;;;;;4991795;28;20046;-76
2024/01/13 12:36:03;;;;;;;52.88;24.85;;;4.60;99.90;;;;;;4998468;28;20112;-75
2024/01/13 12:38:31;;;;;;;753.55;67.47;;;4.60;99.90;;;;;;4999657;28;20054;-76
2024/01/13 12:40:58;;;;;;;67.68;26.42;;;4.70;99.90;;;;;;4996416;28;20080;-76
2024/01/13 12:43:25;;;;;;;53.03;24.92;;;4.70;99.90;;;;;;4998797;28;20052;-77